createdAt,value
2019-03-21T00:00:40.960Z,1025.79
2019-03-21T00:01:40.918Z,1025.79
2019-03-21T00:02:40.883Z,1025.88
2019-03-21T00:03:40.852Z,1025.82
2019-03-21T00:04:40.806Z,1025.87
2019-03-21T00:05:40.771Z,1025.83
2019-03-21T00:06:40.742Z,1025.84
2019-03-21T00:07:40.703Z,1025.86
2019-03-21T00:08:40.663Z,1025.86
2019-03-21T00:09:40.633Z,1025.89
2019-03-21T00:10:40.587Z,1025.88
2019-03-21T00:11:40.551Z,1025.84
2019-03-21T00:12:40.519Z,1025.87
2019-03-21T00:13:40.481Z,1025.86
2019-03-21T00:14:40.439Z,1025.82
2019-03-21T00:15:40.402Z,1025.87
2019-03-21T00:16:40.375Z,1025.84
2019-03-21T00:17:40.332Z,1025.86
2019-03-21T00:18:40.289Z,1025.86
2019-03-21T00:19:40.266Z,1025.88
2019-03-21T00:20:40.227Z,1025.91
2019-03-21T00:21:40.189Z,1025.91
2019-03-21T00:22:40.148Z,1025.89
2019-03-21T00:23:40.109Z,1025.89
2019-03-21T00:24:40.076Z,1025.88
2019-03-21T00:25:40.034Z,1025.95
2019-03-21T00:26:40.003Z,1025.98
2019-03-21T00:27:39.953Z,1025.97
2019-03-21T00:28:39.928Z,1025.93
2019-03-21T00:29:39.895Z,1025.94
2019-03-21T00:30:39.852Z,1025.96
2019-03-21T00:31:39.814Z,1025.93
2019-03-21T00:32:39.773Z,1025.92
2019-03-21T00:33:39.748Z,1025.94
2019-03-21T00:34:39.705Z,1025.90
2019-03-21T00:35:39.667Z,1025.91
2019-03-21T00:36:39.632Z,1025.85
2019-03-21T00:37:39.585Z,1025.86
2019-03-21T00:38:39.553Z,1025.87
2019-03-21T00:39:39.525Z,1025.82
2019-03-21T00:40:39.482Z,1025.86
2019-03-21T00:41:39.443Z,1025.89
2019-03-21T00:42:39.404Z,1025.85
2019-03-21T00:43:39.365Z,1025.83
2019-03-21T00:44:39.330Z,1025.85
2019-03-21T00:45:39.288Z,1025.82
2019-03-21T00:46:39.259Z,1025.81
2019-03-21T00:47:39.215Z,1025.82
2019-03-21T00:48:39.185Z,1025.80
2019-03-21T00:49:39.150Z,1025.83
2019-03-21T00:50:39.118Z,1025.82
2019-03-21T00:51:39.074Z,1025.83
2019-03-21T00:52:39.044Z,1025.81
2019-03-21T00:53:39.001Z,1025.86
2019-03-21T00:54:38.959Z,1025.85
2019-03-21T00:55:38.925Z,1025.84
2019-03-21T00:56:38.884Z,1025.86
2019-03-21T00:57:38.854Z,1025.82
2019-03-21T00:58:38.821Z,1025.79
2019-03-21T00:59:38.798Z,1025.76
2019-03-21T01:00:38.746Z,1025.77
2019-03-21T01:01:38.710Z,1025.75
2019-03-21T01:02:38.665Z,1025.73
2019-03-21T01:03:38.629Z,1025.75
2019-03-21T01:04:38.596Z,1025.79
2019-03-21T01:05:38.552Z,1025.75
2019-03-21T01:06:38.521Z,1025.73
2019-03-21T01:07:38.493Z,1025.77
2019-03-21T01:08:38.452Z,1025.75
2019-03-21T01:09:38.407Z,1025.77
2019-03-21T01:10:38.371Z,1025.74
2019-03-21T01:11:38.342Z,1025.75
2019-03-21T01:12:38.300Z,1025.74
2019-03-21T01:13:38.262Z,1025.73
2019-03-21T01:14:38.220Z,1025.67
2019-03-21T01:15:38.181Z,1025.70
2019-03-21T01:16:38.160Z,1025.70
2019-03-21T01:17:38.113Z,1025.68
2019-03-21T01:18:38.075Z,1025.68
2019-03-21T01:19:38.043Z,1025.69
2019-03-21T01:20:38.006Z,1025.67
2019-03-21T01:21:37.969Z,1025.71
2019-03-21T01:22:37.928Z,1025.71
2019-03-21T01:23:37.890Z,1025.65
2019-03-21T01:24:37.851Z,1025.67
2019-03-21T01:25:37.815Z,1025.66
2019-03-21T01:26:37.789Z,1025.64
2019-03-21T01:27:37.740Z,1025.63
2019-03-21T01:28:37.711Z,1025.64
2019-03-21T01:29:37.662Z,1025.66
2019-03-21T01:30:37.626Z,1025.65
2019-03-21T01:31:37.591Z,1025.70
2019-03-21T01:32:37.558Z,1025.69
2019-03-21T01:33:37.521Z,1025.68
2019-03-21T01:34:37.478Z,1025.72
2019-03-21T01:35:37.445Z,1025.70
2019-03-21T01:36:37.406Z,1025.68
2019-03-21T01:37:37.376Z,1025.66
2019-03-21T01:38:37.340Z,1025.67
2019-03-21T01:39:37.306Z,1025.69
2019-03-21T01:40:37.261Z,1025.65
2019-03-21T01:41:37.223Z,1025.65
2019-03-21T01:42:37.181Z,1025.64
2019-03-21T01:43:37.155Z,1025.63
2019-03-21T01:44:41.236Z,1025.66
2019-03-21T01:45:37.067Z,1025.67
2019-03-21T01:46:37.037Z,1025.67
2019-03-21T01:47:36.993Z,1025.63
2019-03-21T01:48:36.972Z,1025.67
2019-03-21T01:49:36.921Z,1025.68
2019-03-21T01:50:36.888Z,1025.66
2019-03-21T01:51:36.849Z,1025.63
2019-03-21T01:52:36.829Z,1025.66
2019-03-21T01:53:36.770Z,1025.63
2019-03-21T01:54:36.734Z,1025.66
2019-03-21T01:55:36.699Z,1025.66
2019-03-21T01:56:36.677Z,1025.63
2019-03-21T01:57:36.634Z,1025.67
2019-03-21T01:58:36.587Z,1025.69
2019-03-21T01:59:36.549Z,1025.64
2019-03-21T02:00:36.527Z,1025.63
2019-03-21T02:01:36.473Z,1025.64
2019-03-21T02:02:36.445Z,1025.61
2019-03-21T02:03:36.403Z,1025.60
2019-03-21T02:04:36.378Z,1025.55
2019-03-21T02:05:36.328Z,1025.60
2019-03-21T02:06:36.294Z,1025.58
2019-03-21T02:07:36.250Z,1025.53
2019-03-21T02:08:36.218Z,1025.59
2019-03-21T02:09:36.188Z,1025.53
2019-03-21T02:10:36.146Z,1025.53
2019-03-21T02:11:38.636Z,1025.53
2019-03-21T02:12:36.088Z,1025.52
2019-03-21T02:13:36.036Z,1025.52
2019-03-21T02:14:35.994Z,1025.55
2019-03-21T02:15:35.955Z,1025.53
2019-03-21T02:16:35.914Z,1025.55
2019-03-21T02:17:35.894Z,1025.54
2019-03-21T02:18:35.846Z,1025.53
2019-03-21T02:19:35.806Z,1025.54
2019-03-21T02:20:35.768Z,1025.52
2019-03-21T02:21:35.736Z,1025.57
2019-03-21T02:22:35.698Z,1025.59
2019-03-21T02:23:35.650Z,1025.59
2019-03-21T02:24:35.618Z,1025.60
2019-03-21T02:25:35.590Z,1025.58
2019-03-21T02:26:35.546Z,1025.53
2019-03-21T02:27:35.509Z,1025.51
2019-03-21T02:28:35.479Z,1025.51
2019-03-21T02:29:35.431Z,1025.46
2019-03-21T02:30:35.404Z,1025.46
2019-03-21T02:31:35.385Z,1025.42
2019-03-21T02:32:35.322Z,1025.40
2019-03-21T02:33:35.283Z,1025.41
2019-03-21T02:34:35.254Z,1025.40
2019-03-21T02:35:35.212Z,1025.44
2019-03-21T02:36:35.172Z,1025.43
2019-03-21T02:37:35.142Z,1025.41
2019-03-21T02:38:35.105Z,1025.40
2019-03-21T02:39:35.057Z,1025.39
2019-03-21T02:40:35.040Z,1025.38
2019-03-21T02:41:34.996Z,1025.38
2019-03-21T02:42:34.944Z,1025.36
2019-03-21T02:43:34.921Z,1025.36
2019-03-21T02:44:34.904Z,1025.35
2019-03-21T02:45:34.843Z,1025.35
2019-03-21T02:46:34.798Z,1025.33
2019-03-21T02:47:34.758Z,1025.33
2019-03-21T02:48:34.728Z,1025.34
2019-03-21T02:49:34.680Z,1025.36
2019-03-21T02:50:34.652Z,1025.35
2019-03-21T02:51:34.616Z,1025.38
2019-03-21T02:52:34.581Z,1025.35
2019-03-21T02:53:34.543Z,1025.38
2019-03-21T02:54:34.527Z,1025.40
2019-03-21T02:55:34.471Z,1025.39
2019-03-21T02:56:34.459Z,1025.39
2019-03-21T02:57:34.437Z,1025.39
2019-03-21T02:58:34.352Z,1025.42
2019-03-21T02:59:34.331Z,1025.39
2019-03-21T03:00:34.285Z,1025.43
2019-03-21T03:01:34.238Z,1025.41
2019-03-21T03:02:37.167Z,1025.43
2019-03-21T03:03:34.185Z,1025.41
2019-03-21T03:04:34.124Z,1025.39
2019-03-21T03:05:34.114Z,1025.40
2019-03-21T03:06:34.059Z,1025.40
2019-03-21T03:07:34.034Z,1025.39
2019-03-21T03:08:33.982Z,1025.39
2019-03-21T03:09:33.948Z,1025.35
2019-03-21T03:10:33.903Z,1025.35
2019-03-21T03:11:33.867Z,1025.36
2019-03-21T03:12:33.836Z,1025.32
2019-03-21T03:13:33.792Z,1025.34
2019-03-21T03:14:33.748Z,1025.33
2019-03-21T03:15:33.722Z,1025.36
2019-03-21T03:16:33.695Z,1025.36
2019-03-21T03:17:33.643Z,1025.36
2019-03-21T03:18:33.613Z,1025.34
2019-03-21T03:19:33.575Z,1025.38
2019-03-21T03:20:33.534Z,1025.41
2019-03-21T03:21:33.490Z,1025.39
2019-03-21T03:22:33.452Z,1025.38
2019-03-21T03:23:33.420Z,1025.37
2019-03-21T03:24:33.383Z,1025.38
2019-03-21T03:25:33.338Z,1025.36
2019-03-21T03:26:33.308Z,1025.39
2019-03-21T03:27:33.263Z,1025.38
2019-03-21T03:28:33.231Z,1025.39
2019-03-21T03:29:33.200Z,1025.38
2019-03-21T03:30:33.158Z,1025.39
2019-03-21T03:31:33.116Z,1025.40
2019-03-21T03:32:33.111Z,1025.38
2019-03-21T03:33:33.045Z,1025.30
2019-03-21T03:34:33.019Z,1025.34
2019-03-21T03:35:32.970Z,1025.35
2019-03-21T03:36:32.933Z,1025.34
2019-03-21T03:37:32.895Z,1025.34
2019-03-21T03:38:32.850Z,1025.40
2019-03-21T03:39:32.815Z,1025.37
2019-03-21T03:40:32.789Z,1025.38
2019-03-21T03:41:32.744Z,1025.40
2019-03-21T03:42:32.699Z,1025.40
2019-03-21T03:43:32.673Z,1025.41
2019-03-21T03:44:32.635Z,1025.42
2019-03-21T03:45:37.934Z,1025.43
2019-03-21T03:46:32.554Z,1025.46
2019-03-21T03:47:32.521Z,1025.44
2019-03-21T03:48:32.486Z,1025.47
2019-03-21T03:49:32.446Z,1025.46
2019-03-21T03:50:32.404Z,1025.47
2019-03-21T03:51:32.376Z,1025.48
2019-03-21T03:52:32.352Z,1025.50
2019-03-21T03:53:32.289Z,1025.49
2019-03-21T03:54:32.250Z,1025.53
2019-03-21T03:55:32.215Z,1025.53
2019-03-21T03:56:32.186Z,1025.50
2019-03-21T03:57:32.151Z,1025.55
2019-03-21T03:58:32.107Z,1025.53
2019-03-21T03:59:32.065Z,1025.53
2019-03-21T04:00:32.045Z,1025.51
2019-03-21T04:01:31.999Z,1025.52
2019-03-21T04:02:31.951Z,1025.51
2019-03-21T04:03:31.920Z,1025.48
2019-03-21T04:04:31.898Z,1025.47
2019-03-21T04:05:31.896Z,1025.50
2019-03-21T04:06:31.792Z,1025.47
2019-03-21T04:07:31.760Z,1025.48
2019-03-21T04:08:31.737Z,1025.49
2019-03-21T04:09:31.701Z,1025.51
2019-03-21T04:10:31.658Z,1025.49
2019-03-21T04:11:31.630Z,1025.53
2019-03-21T04:12:31.581Z,1025.54
2019-03-21T04:13:31.543Z,1025.56
2019-03-21T04:14:31.497Z,1025.61
2019-03-21T04:15:31.467Z,1025.60
2019-03-21T04:16:31.427Z,1025.63
2019-03-21T04:17:31.385Z,1025.63
2019-03-21T04:18:31.356Z,1025.60
2019-03-21T04:19:31.311Z,1025.58
2019-03-21T04:20:31.280Z,1025.65
2019-03-21T04:21:31.245Z,1025.61
2019-03-21T04:22:31.216Z,1025.67
2019-03-21T04:23:31.158Z,1025.64
2019-03-21T04:24:31.136Z,1025.65
2019-03-21T04:25:31.094Z,1025.68
2019-03-21T04:26:31.051Z,1025.67
2019-03-21T04:27:31.011Z,1025.71
2019-03-21T04:28:30.981Z,1025.69
2019-03-21T04:29:30.948Z,1025.68
2019-03-21T04:30:30.901Z,1025.69
2019-03-21T04:31:30.858Z,1025.68
2019-03-21T04:32:30.818Z,1025.66
2019-03-21T04:33:30.793Z,1025.67
2019-03-21T04:34:30.752Z,1025.62
2019-03-21T04:35:30.711Z,1025.61
2019-03-21T04:36:30.684Z,1025.65
2019-03-21T04:37:30.641Z,1025.66
2019-03-21T04:38:30.592Z,1025.68
2019-03-21T04:39:30.563Z,1025.67
2019-03-21T04:40:30.517Z,1025.66
2019-03-21T04:41:30.483Z,1025.63
2019-03-21T04:42:30.452Z,1025.62
2019-03-21T04:43:30.407Z,1025.63
2019-03-21T04:44:30.377Z,1025.62
2019-03-21T04:45:30.334Z,1025.61
2019-03-21T04:46:30.304Z,1025.62
2019-03-21T04:47:30.257Z,1025.63
2019-03-21T04:48:30.222Z,1025.65
2019-03-21T04:49:30.187Z,1025.63
2019-03-21T04:50:30.142Z,1025.66
2019-03-21T04:51:30.112Z,1025.66
2019-03-21T04:52:30.067Z,1025.63
2019-03-21T04:53:30.036Z,1025.67
2019-03-21T04:54:29.993Z,1025.63
2019-03-21T04:55:29.958Z,1025.65
2019-03-21T04:56:29.918Z,1025.67
2019-03-21T04:57:29.888Z,1025.65
2019-03-21T04:58:29.842Z,1025.67
2019-03-21T04:59:29.813Z,1025.68
2019-03-21T05:00:29.771Z,1025.69
2019-03-21T05:01:29.737Z,1025.66
2019-03-21T05:02:29.695Z,1025.66
2019-03-21T05:03:29.655Z,1025.70
2019-03-21T05:04:29.628Z,1025.67
2019-03-21T05:05:29.587Z,1025.67
2019-03-21T05:06:29.550Z,1025.67
2019-03-21T05:07:29.549Z,1025.65
2019-03-21T05:08:29.478Z,1025.65
2019-03-21T05:09:29.425Z,1025.63
2019-03-21T05:10:29.390Z,1025.65
2019-03-21T05:11:29.354Z,1025.68
2019-03-21T05:12:29.315Z,1025.71
2019-03-21T05:13:29.280Z,1025.75
2019-03-21T05:14:29.240Z,1025.72
2019-03-21T05:15:29.195Z,1025.76
2019-03-21T05:16:29.161Z,1025.71
2019-03-21T05:17:29.119Z,1025.70
2019-03-21T05:18:29.091Z,1025.71
2019-03-21T05:19:29.048Z,1025.69
2019-03-21T05:20:29.010Z,1025.71
2019-03-21T05:21:28.980Z,1025.70
2019-03-21T05:22:28.942Z,1025.70
2019-03-21T05:23:28.903Z,1025.69
2019-03-21T05:24:28.860Z,1025.67
2019-03-21T05:25:28.826Z,1025.68
2019-03-21T05:26:28.781Z,1025.70
2019-03-21T05:27:28.745Z,1025.72
2019-03-21T05:28:28.716Z,1025.71
2019-03-21T05:29:28.670Z,1025.75
2019-03-21T05:30:28.632Z,1025.72
2019-03-21T05:31:28.595Z,1025.76
2019-03-21T05:32:28.561Z,1025.78
2019-03-21T05:33:28.519Z,1025.75
2019-03-21T05:34:28.490Z,1025.75
2019-03-21T05:35:28.452Z,1025.74
2019-03-21T05:36:28.405Z,1025.78
2019-03-21T05:37:28.367Z,1025.78
2019-03-21T05:38:28.329Z,1025.78
2019-03-21T05:39:28.296Z,1025.80
2019-03-21T05:40:28.266Z,1025.81
2019-03-21T05:41:28.225Z,1025.74
2019-03-21T05:42:28.187Z,1025.78
2019-03-21T05:43:28.144Z,1025.73
2019-03-21T05:44:30.765Z,1025.76
2019-03-21T05:45:28.063Z,1025.77
2019-03-21T05:46:28.031Z,1025.79
2019-03-21T05:47:27.986Z,1025.84
2019-03-21T05:48:27.957Z,1025.85
2019-03-21T05:49:27.918Z,1025.82
2019-03-21T05:50:27.883Z,1025.81
2019-03-21T05:51:27.836Z,1025.90
2019-03-21T05:52:27.807Z,1025.86
2019-03-21T05:53:27.765Z,1025.83
2019-03-21T05:54:27.728Z,1025.88
2019-03-21T05:55:27.688Z,1025.87
2019-03-21T05:56:27.661Z,1025.88
2019-03-21T05:57:27.616Z,1025.91
2019-03-21T05:58:27.567Z,1025.89
2019-03-21T05:59:27.549Z,1025.94
2019-03-21T06:00:27.502Z,1025.98
2019-03-21T06:01:27.462Z,1025.90
2019-03-21T06:02:27.434Z,1025.91
2019-03-21T06:03:27.392Z,1025.90
2019-03-21T06:04:27.353Z,1025.91
2019-03-21T06:05:27.317Z,1025.91
2019-03-21T06:06:27.289Z,1025.89
2019-03-21T06:07:27.237Z,1025.89
2019-03-21T06:08:27.198Z,1025.92
2019-03-21T06:09:27.167Z,1025.90
2019-03-21T06:10:27.121Z,1025.93
2019-03-21T06:11:27.089Z,1026.01
2019-03-21T06:12:27.044Z,1025.96
2019-03-21T06:13:27.006Z,1026.01
2019-03-21T06:14:26.972Z,1026.02
2019-03-21T06:15:26.928Z,1026.06
2019-03-21T06:16:37.291Z,1026.06
2019-03-21T06:17:26.864Z,1026.10
2019-03-21T06:18:26.818Z,1026.08
2019-03-21T06:19:26.785Z,1026.07
2019-03-21T06:20:26.752Z,1026.07
2019-03-21T06:21:26.707Z,1026.05
2019-03-21T06:22:26.664Z,1026.07
2019-03-21T06:23:26.634Z,1026.06
2019-03-21T06:24:26.594Z,1026.02
2019-03-21T06:25:26.558Z,1026.05
2019-03-21T06:26:26.524Z,1026.03
2019-03-21T06:27:26.492Z,1026.06
2019-03-21T06:28:26.442Z,1026.06
2019-03-21T06:29:26.399Z,1026.05
2019-03-21T06:30:26.373Z,1026.06
2019-03-21T06:31:26.330Z,1026.06
2019-03-21T06:32:26.294Z,1026.06
2019-03-21T06:33:26.253Z,1026.08
2019-03-21T06:34:26.208Z,1026.08
2019-03-21T06:35:26.185Z,1026.09
2019-03-21T06:36:26.145Z,1026.08
2019-03-21T06:37:28.502Z,1026.10
2019-03-21T06:38:26.058Z,1026.09
2019-03-21T06:39:26.036Z,1026.11
2019-03-21T06:40:25.994Z,1026.07
2019-03-21T06:41:25.953Z,1026.06
2019-03-21T06:42:25.919Z,1026.09
2019-03-21T06:43:25.881Z,1026.06
2019-03-21T06:44:25.834Z,1026.09
2019-03-21T06:45:25.809Z,1026.14
2019-03-21T06:46:25.771Z,1026.16
2019-03-21T06:47:25.729Z,1026.14
2019-03-21T06:48:25.694Z,1026.15
2019-03-21T06:49:25.651Z,1026.17
2019-03-21T06:50:25.616Z,1026.14
2019-03-21T06:51:25.572Z,1026.16
2019-03-21T06:52:25.540Z,1026.16
2019-03-21T06:53:25.502Z,1026.17
2019-03-21T06:54:25.465Z,1026.13
2019-03-21T06:55:25.429Z,1026.17
2019-03-21T06:56:25.395Z,1026.13
2019-03-21T06:57:25.351Z,1026.14
2019-03-21T06:58:25.312Z,1026.15
2019-03-21T06:59:25.277Z,1026.19
2019-03-21T07:00:25.259Z,1026.21
2019-03-21T07:01:25.196Z,1026.20
2019-03-21T07:02:25.171Z,1026.19
2019-03-21T07:03:25.132Z,1026.21
2019-03-21T07:04:25.086Z,1026.19
2019-03-21T07:05:26.776Z,1026.18
2019-03-21T07:06:25.016Z,1026.19
2019-03-21T07:07:24.987Z,1026.20
2019-03-21T07:08:24.940Z,1026.16
2019-03-21T07:09:24.907Z,1026.15
2019-03-21T07:10:24.870Z,1026.17
2019-03-21T07:11:24.825Z,1026.13
2019-03-21T07:12:24.791Z,1026.17
2019-03-21T07:13:24.752Z,1026.14
2019-03-21T07:14:24.725Z,1026.13
2019-03-21T07:15:24.674Z,1026.21
2019-03-21T07:16:24.655Z,1026.22
2019-03-21T07:17:24.604Z,1026.25
2019-03-21T07:18:24.584Z,1026.22
2019-03-21T07:19:24.547Z,1026.21
2019-03-21T07:20:24.501Z,1026.19
2019-03-21T07:21:24.457Z,1026.22
2019-03-21T07:22:24.420Z,1026.20
2019-03-21T07:23:24.377Z,1026.20
2019-03-21T07:24:24.341Z,1026.21
2019-03-21T07:25:24.302Z,1026.22
2019-03-21T07:26:24.278Z,1026.17
2019-03-21T07:27:24.241Z,1026.19
2019-03-21T07:28:24.196Z,1026.18
2019-03-21T07:29:24.157Z,1026.18
2019-03-21T07:30:24.132Z,1026.17
2019-03-21T07:31:24.088Z,1026.17
2019-03-21T07:32:33.045Z,1026.18
2019-03-21T07:33:24.021Z,1026.17
2019-03-21T07:34:23.976Z,1026.18
2019-03-21T07:35:23.937Z,1026.17
2019-03-21T07:36:26.175Z,1026.18
2019-03-21T07:37:23.866Z,1026.23
2019-03-21T07:38:23.831Z,1026.20
2019-03-21T07:39:23.784Z,1026.21
2019-03-21T07:40:23.764Z,1026.21
2019-03-21T07:41:23.718Z,1026.21
2019-03-21T07:42:23.688Z,1026.20
2019-03-21T07:43:23.656Z,1026.19
2019-03-21T07:44:23.608Z,1026.18
2019-03-21T07:45:23.574Z,1026.17
2019-03-21T07:46:23.530Z,1026.17
2019-03-21T07:47:23.501Z,1026.20
2019-03-21T07:48:23.463Z,1026.19
2019-03-21T07:49:23.424Z,1026.20
2019-03-21T07:50:23.394Z,1026.21
2019-03-21T07:51:23.358Z,1026.25
2019-03-21T07:52:23.323Z,1026.25
2019-03-21T07:53:23.283Z,1026.22
2019-03-21T07:54:23.243Z,1026.19
2019-03-21T07:55:23.201Z,1026.23
2019-03-21T07:56:25.010Z,1026.23
2019-03-21T07:57:23.133Z,1026.24
2019-03-21T07:58:23.100Z,1026.26
2019-03-21T07:59:23.055Z,1026.23
2019-03-21T08:00:23.019Z,1026.21
2019-03-21T08:01:22.983Z,1026.20
2019-03-21T08:02:22.950Z,1026.20
2019-03-21T08:03:22.919Z,1026.21
2019-03-21T08:04:22.878Z,1026.24
2019-03-21T08:05:22.844Z,1026.28
2019-03-21T08:06:22.808Z,1026.30
2019-03-21T08:07:22.771Z,1026.27
2019-03-21T08:08:22.739Z,1026.27
2019-03-21T08:09:22.697Z,1026.30
2019-03-21T08:10:22.665Z,1026.28
2019-03-21T08:11:22.627Z,1026.27
2019-03-21T08:12:22.593Z,1026.28
2019-03-21T08:13:22.558Z,1026.25
2019-03-21T08:14:22.514Z,1026.25
2019-03-21T08:15:22.478Z,1026.24
2019-03-21T08:16:22.444Z,1026.26
2019-03-21T08:17:22.416Z,1026.24
2019-03-21T08:18:22.371Z,1026.26
2019-03-21T08:19:22.336Z,1026.23
2019-03-21T08:20:22.299Z,1026.24
2019-03-21T08:21:22.265Z,1026.23
2019-03-21T08:22:22.229Z,1026.23
2019-03-21T08:23:22.195Z,1026.20
2019-03-21T08:24:22.151Z,1026.23
2019-03-21T08:25:22.125Z,1026.22
2019-03-21T08:26:22.090Z,1026.24
2019-03-21T08:27:22.059Z,1026.21
2019-03-21T08:28:22.015Z,1026.22
2019-03-21T08:29:21.982Z,1026.22
2019-03-21T08:30:21.937Z,1026.22
2019-03-21T08:31:21.900Z,1026.22
2019-03-21T08:32:21.877Z,1026.26
2019-03-21T08:33:21.843Z,1026.28
2019-03-21T08:34:21.796Z,1026.27
2019-03-21T08:35:21.760Z,1026.26
2019-03-21T08:36:21.737Z,1026.26
2019-03-21T08:37:21.696Z,1026.23
2019-03-21T08:38:21.656Z,1026.26
2019-03-21T08:39:21.628Z,1026.27
2019-03-21T08:40:21.591Z,1026.31
2019-03-21T08:41:21.560Z,1026.25
2019-03-21T08:42:21.521Z,1026.25
2019-03-21T08:43:21.485Z,1026.25
2019-03-21T08:44:21.445Z,1026.24
2019-03-21T08:45:21.415Z,1026.20
2019-03-21T08:46:21.426Z,1026.20
2019-03-21T08:47:21.342Z,1026.22
2019-03-21T08:48:21.302Z,1026.20
2019-03-21T08:49:21.271Z,1026.20
2019-03-21T08:50:21.242Z,1026.28
2019-03-21T08:51:21.201Z,1026.23
2019-03-21T08:52:21.173Z,1026.27
2019-03-21T08:53:21.146Z,1026.28
2019-03-21T08:54:21.091Z,1026.26
2019-03-21T08:55:21.063Z,1026.28
2019-03-21T08:56:21.028Z,1026.29
2019-03-21T08:57:20.987Z,1026.31
2019-03-21T08:58:20.967Z,1026.31
2019-03-21T08:59:20.923Z,1026.31
2019-03-21T09:00:20.892Z,1026.31
2019-03-21T09:01:20.861Z,1026.33
2019-03-21T09:02:20.818Z,1026.29
2019-03-21T09:03:20.784Z,1026.29
2019-03-21T09:04:20.748Z,1026.25
2019-03-21T09:05:20.714Z,1026.25
2019-03-21T09:06:20.673Z,1026.24
2019-03-21T09:07:20.644Z,1026.24
2019-03-21T09:08:20.610Z,1026.24
2019-03-21T09:09:20.578Z,1026.24
2019-03-21T09:10:20.552Z,1026.23
2019-03-21T09:11:20.512Z,1026.26
2019-03-21T09:12:20.470Z,1026.21
2019-03-21T09:13:20.435Z,1026.18
2019-03-21T09:14:20.399Z,1026.22
2019-03-21T09:15:20.372Z,1026.21
2019-03-21T09:16:20.341Z,1026.22
2019-03-21T09:17:20.298Z,1026.22
2019-03-21T09:18:20.280Z,1026.22
2019-03-21T09:19:20.234Z,1026.26
2019-03-21T09:20:20.202Z,1026.24
2019-03-21T09:21:20.354Z,1026.26
2019-03-21T09:22:20.135Z,1026.26
2019-03-21T09:23:20.115Z,1026.28
2019-03-21T09:24:20.068Z,1026.27
2019-03-21T09:25:20.039Z,1026.24
2019-03-21T09:26:19.995Z,1026.20
2019-03-21T09:27:19.960Z,1026.19
2019-03-21T09:28:19.923Z,1026.22
2019-03-21T09:29:19.887Z,1026.23
2019-03-21T09:30:19.854Z,1026.22
2019-03-21T09:31:19.828Z,1026.20
2019-03-21T09:32:19.871Z,1026.25
2019-03-21T09:33:19.753Z,1026.26
2019-03-21T09:34:19.725Z,1026.24
2019-03-21T09:35:19.701Z,1026.26
2019-03-21T09:36:19.658Z,1026.26
2019-03-21T09:37:19.624Z,1026.27
2019-03-21T09:38:19.595Z,1026.25
2019-03-21T09:39:19.559Z,1026.24
2019-03-21T09:40:19.516Z,1026.22
2019-03-21T09:41:19.501Z,1026.26
2019-03-21T09:42:19.460Z,1026.23
2019-03-21T09:43:19.421Z,1026.25
2019-03-21T09:44:19.400Z,1026.23
2019-03-21T09:45:19.364Z,1026.24
2019-03-21T09:46:19.329Z,1026.25
2019-03-21T09:47:19.290Z,1026.22
2019-03-21T09:48:19.261Z,1026.19
2019-03-21T09:49:19.235Z,1026.22
2019-03-21T09:50:19.211Z,1026.23
2019-03-21T09:51:30.347Z,1026.22
2019-03-21T09:52:19.126Z,1026.23
2019-03-21T09:53:19.087Z,1026.22
2019-03-21T09:54:19.066Z,1026.22
2019-03-21T09:55:19.029Z,1026.20
2019-03-21T09:56:18.996Z,1026.21
2019-03-21T09:57:18.972Z,1026.20
2019-03-21T09:58:18.937Z,1026.20
2019-03-21T09:59:18.906Z,1026.19
2019-03-21T10:00:18.872Z,1026.21
2019-03-21T10:01:18.836Z,1026.80
2019-03-21T10:02:18.801Z,1027.56
2019-03-21T10:03:18.775Z,1027.74
2019-03-21T10:04:18.740Z,1027.94
2019-03-21T10:05:18.706Z,1028.05
2019-03-21T10:06:18.691Z,1028.02
2019-03-21T10:07:18.649Z,1028.00
2019-03-21T10:08:18.625Z,1027.97
2019-03-21T10:09:18.584Z,1027.91
2019-03-21T10:10:18.562Z,1027.85
2019-03-21T10:11:18.532Z,1027.94
2019-03-21T10:12:18.506Z,1028.05
2019-03-21T10:13:18.482Z,1028.02
2019-03-21T10:14:18.443Z,1028.04
2019-03-21T10:15:18.423Z,1028.10
2019-03-21T10:16:18.402Z,1028.18
2019-03-21T10:17:18.370Z,1028.19
2019-03-21T10:18:18.349Z,1028.11
2019-03-21T10:19:18.331Z,1028.10
2019-03-21T10:20:18.301Z,1028.15
2019-03-21T10:21:18.276Z,1028.07
2019-03-21T10:22:18.261Z,1028.11
2019-03-21T10:23:18.235Z,1028.23
2019-03-21T10:24:18.217Z,1028.39
2019-03-21T10:25:18.192Z,1028.49
2019-03-21T10:26:18.168Z,1028.45
2019-03-21T10:27:18.154Z,1028.39
2019-03-21T10:28:18.116Z,1028.47
2019-03-21T10:29:18.104Z,1028.55
2019-03-21T10:30:18.087Z,1028.68
2019-03-21T10:31:18.062Z,1028.79
2019-03-21T10:32:18.044Z,1028.84
2019-03-21T10:33:18.027Z,1028.91
2019-03-21T10:34:17.994Z,1028.84
2019-03-21T10:35:17.984Z,1028.85
2019-03-21T10:36:17.965Z,1028.98
2019-03-21T10:37:17.977Z,1029.08
2019-03-21T10:38:17.924Z,1029.03
2019-03-21T10:39:17.901Z,1029.05
2019-03-21T10:40:17.874Z,1029.07
2019-03-21T10:41:17.874Z,1029.02
2019-03-21T10:42:17.849Z,1029.06
2019-03-21T10:43:17.834Z,1029.15
2019-03-21T10:44:17.805Z,1029.08
2019-03-21T10:45:17.790Z,1028.94
2019-03-21T10:46:17.768Z,1029.14
2019-03-21T10:47:17.753Z,1029.30
2019-03-21T10:48:17.740Z,1029.37
2019-03-21T10:49:17.719Z,1029.44
2019-03-21T10:50:17.753Z,1029.64
2019-03-21T10:51:17.685Z,1029.42
2019-03-21T10:52:17.677Z,1029.63
2019-03-21T10:53:17.650Z,1029.94
2019-03-21T10:54:17.629Z,1029.90
2019-03-21T10:55:17.665Z,1030.26
2019-03-21T10:56:17.620Z,1030.77
2019-03-21T10:57:17.575Z,1030.75
2019-03-21T10:58:17.563Z,1031.00
2019-03-21T10:59:17.563Z,1031.32
2019-03-21T11:00:17.524Z,1031.38
2019-03-21T11:01:17.515Z,1031.63
2019-03-21T11:02:17.494Z,1031.57
2019-03-21T11:03:17.503Z,1032.14
2019-03-21T11:04:17.474Z,1033.08
2019-03-21T11:05:17.446Z,1032.48
2019-03-21T11:06:17.435Z,1032.27
2019-03-21T11:07:17.409Z,1033.11
2019-03-21T11:08:17.400Z,1033.07
2019-03-21T11:09:17.370Z,1032.44
2019-03-21T11:10:17.365Z,1032.84
2019-03-21T11:11:17.340Z,1032.47
2019-03-21T11:12:17.326Z,1031.84
2019-03-21T11:13:17.311Z,1032.78
2019-03-21T11:14:17.289Z,1033.61
2019-03-21T11:15:17.274Z,1032.63
2019-03-21T11:16:17.259Z,1032.27
2019-03-21T11:17:17.241Z,1032.71
2019-03-21T11:18:17.229Z,1032.67
2019-03-21T11:19:17.214Z,1033.26
2019-03-21T11:20:17.197Z,1034.02
2019-03-21T11:21:17.177Z,1032.69
2019-03-21T11:22:17.164Z,1032.28
2019-03-21T11:23:17.145Z,1032.31
2019-03-21T11:24:17.140Z,1030.68
2019-03-21T11:25:17.122Z,1029.69
2019-03-21T11:26:17.096Z,1029.50
2019-03-21T11:27:17.082Z,1028.86
2019-03-21T11:28:17.856Z,1028.24
2019-03-21T11:29:17.048Z,1027.82
2019-03-21T11:30:17.035Z,1027.47
2019-03-21T11:31:17.011Z,1027.32
2019-03-21T11:32:16.995Z,1027.18
2019-03-21T11:33:16.985Z,1027.10
2019-03-21T11:34:16.970Z,1026.89
2019-03-21T11:35:16.943Z,1026.78
2019-03-21T11:36:16.941Z,1026.65
2019-03-21T11:37:16.925Z,1026.55
2019-03-21T11:38:16.906Z,1026.51
2019-03-21T11:39:16.882Z,1026.40
2019-03-21T11:40:16.865Z,1026.35
2019-03-21T11:41:16.853Z,1026.31
2019-03-21T11:42:16.838Z,1026.27
2019-03-21T11:43:16.830Z,1026.32
2019-03-21T11:44:16.803Z,1026.17
2019-03-21T11:45:16.788Z,1026.21
2019-03-21T11:46:16.782Z,1026.12
2019-03-21T11:47:16.770Z,1026.12
2019-03-21T11:48:16.924Z,1026.20
2019-03-21T11:49:16.733Z,1026.10
2019-03-21T11:50:16.719Z,1026.09
2019-03-21T11:51:16.695Z,1026.02
2019-03-21T11:52:18.379Z,1026.00
2019-03-21T11:53:16.657Z,1026.00
2019-03-21T11:54:16.638Z,1026.00
2019-03-21T11:55:16.622Z,1025.92
2019-03-21T11:56:16.626Z,1026.02
2019-03-21T11:57:16.591Z,1026.04
2019-03-21T11:58:17.824Z,1026.04
2019-03-21T11:59:16.561Z,1026.04
2019-03-21T12:00:16.548Z,1025.99
2019-03-21T12:01:16.523Z,1026.10
2019-03-21T12:02:26.533Z,1026.06
2019-03-21T12:03:16.488Z,1026.15
2019-03-21T12:04:16.472Z,1026.04
2019-03-21T12:05:16.459Z,1026.12